Orient, Iowa
Current Conditions -  °F | °C
As of 3:15 AM on Friday 31 Oct 2014 (Local Time) from KCSQ Reporting Station
Overcast Overcast  
Wind Chill: 27°   Ceiling: 2800
Heat Index: 37°   Visibility: 10mi
Dew Point: 27°   Wind: 21mph
Humidity: 65%   Direction: 340°NNW
Pressure: 30.36"   Gusts: 31mph
Location:  41.2°N, 94.41°W
Report Text: KCSQ 310815Z AUTO 34018G27KT 10SM OVC028 03/M03 A3036 RMK AO2
Loading
Personal Weather Stations






























Interactive Weather Map
Tropical Storm Tracking
New forecast layout! Learn more

10-Day Weather Forecast

Advertisements
Track Severe Weather on mobile